Nature

Eilat Airport (ETH/LLET) is an Israeli airport located in the city of Eilat and named for Arkia Airlines founder Yakov Hozman (Jacob Housman).
Eilat Airport is located in the central area of the city, next to Route 90 (The Arava Road).
It mostly handles domestic flights to Tel Aviv and Haifa with international flights operating instead to Uvda International Airport.
Eilat Airport is the southernmost airport in the State of Israel.
The Eilat Airport was established in 1949 and currently averages about 1,424,098 and 19,392 aircraft per year.

At Eilat Airport you can find a single runway (21/03).

Scenery:

Sim Download Size Author
P3D & FSX LLET Eilat 33.3MB Freeware ISP
P3D & FSX ICVFR Eilat Scenery 73.8MB Freeware Chris Bell

Charts:

File Name
General Aerodrome Chart
Ground Parkings Chart
CVFR Entry / Exit Routes (CVFR)
CVFR Entry / exit routes (CVFR), using an east approach
Departure SAMAR1A, SAMAR1B RWY 21/03
CVFR Traffic Pattrens Chart
Approach KITOR Y VIS RWY 21
Approach NESICHA VIS RWY 03

METAR & TAF:

Available data for LLET from the past hour
ELAT/J. HOZMAN(A
TAF
TAF LLET 181701Z 1818/1918 02015KT CAVOK BECMG 1819/1821 36010KT BECMG 1905/1907 02018KT PROB40 1910/1916 02020G30KT TX29/1912Z TN13/1904Z